createdAt,value
2023-06-04T00:00:18.764Z,60.55
2023-06-04T00:01:28.130Z,46.15
2023-06-04T00:02:47.185Z,63.55
2023-06-04T00:03:56.738Z,66.75
2023-06-04T00:05:04.848Z,50.90
2023-06-04T00:06:09.854Z,56.92
2023-06-04T00:07:16.553Z,51.38
2023-06-04T00:08:20.036Z,52.45
2023-06-04T00:09:27.240Z,48.10
2023-06-04T00:10:31.760Z,90.40
2023-06-04T00:11:41.412Z,67.45
2023-06-04T00:12:45.619Z,58.08
2023-06-04T00:13:55.866Z,46.28
2023-06-04T00:15:00.537Z,41.28
2023-06-04T00:16:14.686Z,54.95
2023-06-04T00:17:25.196Z,42.50
2023-06-04T00:18:32.459Z,61.45
2023-06-04T00:19:36.234Z,65.07
2023-06-04T00:20:42.633Z,74.80
2023-06-04T00:21:47.513Z,48.15
2023-06-04T00:23:00.140Z,47.38
2023-06-04T00:25:17.999Z,54.78
2023-06-04T00:26:26.811Z,55.95
2023-06-04T00:27:39.704Z,60.17
2023-06-04T00:28:43.439Z,143.85
2023-06-04T00:29:49.886Z,50.55
2023-06-04T00:30:54.623Z,62.60
2023-06-04T00:32:01.679Z,67.82
2023-06-04T00:33:06.097Z,47.30
2023-06-04T00:34:13.480Z,42.08
2023-06-04T00:35:21.476Z,73.60
2023-06-04T00:36:29.577Z,30.40
2023-06-04T00:37:36.843Z,63.30
2023-06-04T00:38:41.753Z,65.45
2023-06-04T00:39:52.770Z,60.95
2023-06-04T00:40:57.850Z,53.67
2023-06-04T00:42:05.327Z,64.13
2023-06-04T00:43:13.216Z,55.95
2023-06-04T00:44:20.156Z,51.50
2023-06-04T00:45:27.783Z,50.72
2023-06-04T00:46:35.394Z,53.63
2023-06-04T00:47:39.583Z,54.50
2023-06-04T00:48:47.274Z,58.55
2023-06-04T00:49:56.892Z,38.30
2023-06-04T00:51:00.988Z,54.22
2023-06-04T00:52:14.412Z,39.97
2023-06-04T00:53:19.071Z,34.35
2023-06-04T00:54:29.078Z,89.10
2023-06-04T00:55:33.681Z,61.72
2023-06-04T00:56:49.342Z,77.40
2023-06-04T00:57:54.821Z,52.90
2023-06-04T00:59:05.344Z,44.72
2023-06-04T01:00:11.925Z,51.08
2023-06-04T01:01:26.460Z,88.13
2023-06-04T01:02:32.467Z,52.80
2023-06-04T01:03:43.332Z,77.32
2023-06-04T01:04:53.035Z,45.90
2023-06-04T01:06:06.960Z,52.03
2023-06-04T01:07:15.151Z,59.58
2023-06-04T01:08:22.372Z,63.45
2023-06-04T01:09:27.263Z,48.22
2023-06-04T01:10:33.893Z,75.55
2023-06-04T01:11:41.808Z,73.40
2023-06-04T01:12:49.100Z,68.40
2023-06-04T01:13:56.466Z,42.47
2023-06-04T01:15:10.272Z,52.13
2023-06-04T01:16:16.891Z,51.03
2023-06-04T01:17:30.768Z,50.65
2023-06-04T01:18:39.233Z,60.83
2023-06-04T01:20:19.826Z,92.63
2023-06-04T01:21:25.120Z,63.63
2023-06-04T01:22:42.838Z,49.55
2023-06-04T01:23:51.397Z,63.20
2023-06-04T01:25:03.409Z,60.08
2023-06-04T01:26:12.042Z,51.53
2023-06-04T01:27:24.400Z,52.65
2023-06-04T01:28:32.191Z,52.08
2023-06-04T01:29:50.829Z,68.05
2023-06-04T01:31:05.048Z,46.33
2023-06-04T01:32:13.362Z,44.97
2023-06-04T01:33:22.430Z,63.10
2023-06-04T01:34:35.438Z,51.53
2023-06-04T01:35:39.820Z,65.65
2023-06-04T01:36:46.474Z,58.90
2023-06-04T01:37:52.930Z,65.22
2023-06-04T01:39:03.471Z,59.15
2023-06-04T01:40:10.136Z,51.53
2023-06-04T01:41:16.717Z,64.10
2023-06-04T01:42:28.039Z,51.05
2023-06-04T01:43:43.055Z,54.78
2023-06-04T01:44:51.062Z,76.63
2023-06-04T01:46:03.112Z,45.88
2023-06-04T01:47:07.178Z,57.88
2023-06-04T01:48:17.023Z,44.35
2023-06-04T01:49:23.304Z,57.92
2023-06-04T01:50:34.351Z,124.45
2023-06-04T01:51:38.891Z,72.03
2023-06-04T01:52:49.975Z,58.45
2023-06-04T01:53:57.804Z,42.55
2023-06-04T01:55:04.774Z,60.83
2023-06-04T01:56:10.420Z,44.35
2023-06-04T01:57:19.065Z,42.65
2023-06-04T01:58:29.006Z,42.85
2023-06-04T01:59:33.983Z,64.22
2023-06-04T02:00:40.641Z,55.03
2023-06-04T02:01:47.292Z,75.15
2023-06-04T02:02:57.936Z,48.03
2023-06-04T02:04:02.025Z,51.00
2023-06-04T02:05:10.273Z,53.10
2023-06-04T02:06:19.307Z,60.17
2023-06-04T02:07:23.496Z,46.30
2023-06-04T02:08:32.223Z,49.70
2023-06-04T02:09:38.042Z,65.78
2023-06-04T02:10:48.777Z,67.90
2023-06-04T02:11:55.472Z,57.10
2023-06-04T02:13:04.275Z,83.30
2023-06-04T02:14:08.529Z,57.75
2023-06-04T02:15:16.821Z,50.65
2023-06-04T02:16:21.229Z,84.07
2023-06-04T02:17:34.470Z,53.80
2023-06-04T02:18:41.936Z,52.45
2023-06-04T02:20:00.203Z,72.13
2023-06-04T02:21:04.129Z,76.28
2023-06-04T02:22:19.528Z,61.55
2023-06-04T02:23:39.084Z,44.58
2023-06-04T02:24:44.384Z,69.53
2023-06-04T02:25:52.071Z,48.03
2023-06-04T02:26:56.942Z,127.97
2023-06-04T02:28:04.093Z,47.92
2023-06-04T02:29:09.136Z,47.15
2023-06-04T02:30:18.823Z,92.25
2023-06-04T02:31:23.380Z,40.17
2023-06-04T02:32:38.296Z,47.35
2023-06-04T02:33:45.447Z,66.85
2023-06-04T02:34:56.129Z,74.03
2023-06-04T02:36:07.390Z,36.15
2023-06-04T02:37:11.313Z,35.60
2023-06-04T02:38:18.300Z,59.00
2023-06-04T02:39:23.233Z,37.40
2023-06-04T02:40:30.518Z,57.05
2023-06-04T02:41:46.892Z,40.40
2023-06-04T02:43:06.040Z,47.63
2023-06-04T02:44:10.226Z,37.85
2023-06-04T02:45:19.593Z,33.50
2023-06-04T02:46:24.309Z,30.77
2023-06-04T02:47:39.579Z,37.35
2023-06-04T02:48:49.191Z,47.95
2023-06-04T02:49:57.247Z,40.88
2023-06-04T02:51:04.898Z,33.10
2023-06-04T02:52:16.145Z,37.47
2023-06-04T02:53:26.234Z,36.38
2023-06-04T02:54:39.329Z,41.10
2023-06-04T02:55:49.402Z,51.40
2023-06-04T02:57:03.028Z,29.42
2023-06-04T02:58:13.566Z,31.15
2023-06-04T02:59:23.020Z,30.63
2023-06-04T03:00:27.857Z,30.63
2023-06-04T03:01:45.166Z,31.08
2023-06-04T03:02:55.419Z,47.10
2023-06-04T03:04:08.037Z,27.55
2023-06-04T03:05:14.492Z,33.47
2023-06-04T03:06:23.069Z,26.98
2023-06-04T03:07:29.001Z,29.48
2023-06-04T03:08:36.736Z,29.38
2023-06-04T03:09:44.725Z,46.08
2023-06-04T03:10:58.226Z,43.35
2023-06-04T03:12:06.026Z,33.78
2023-06-04T03:13:15.779Z,27.55
2023-06-04T03:14:34.583Z,58.50
2023-06-04T03:15:50.975Z,52.28
2023-06-04T03:16:57.270Z,26.75
2023-06-04T03:18:14.336Z,28.15
2023-06-04T03:19:18.874Z,24.90
2023-06-04T03:20:27.656Z,28.73
2023-06-04T03:21:37.382Z,44.00
2023-06-04T03:22:45.330Z,31.95
2023-06-04T03:23:52.294Z,34.03
2023-06-04T03:25:01.169Z,38.33
2023-06-04T03:26:05.824Z,30.80
2023-06-04T03:27:27.267Z,29.20
2023-06-04T03:28:36.295Z,29.77
2023-06-04T03:29:51.974Z,34.55
2023-06-04T03:30:59.007Z,28.58
2023-06-04T03:32:04.511Z,27.60
2023-06-04T03:33:14.462Z,42.75
2023-06-04T03:34:22.744Z,28.33
2023-06-04T03:35:31.999Z,28.92
2023-06-04T03:36:40.040Z,40.30
2023-06-04T03:37:44.176Z,34.25
2023-06-04T03:38:55.364Z,47.83
2023-06-04T03:40:05.526Z,62.72
2023-06-04T03:41:13.835Z,27.67
2023-06-04T03:42:19.512Z,36.67
2023-06-04T03:43:27.269Z,25.95
2023-06-04T03:44:32.635Z,26.25
2023-06-04T03:45:46.942Z,30.35
2023-06-04T03:46:54.619Z,45.50
2023-06-04T03:48:09.047Z,30.65
2023-06-04T03:49:19.753Z,25.30
2023-06-04T03:50:33.603Z,31.00
2023-06-04T03:51:42.327Z,37.20
2023-06-04T03:52:52.709Z,35.88
2023-06-04T03:54:00.220Z,28.35
2023-06-04T03:55:08.826Z,38.20
2023-06-04T03:56:12.913Z,26.83
2023-06-04T03:57:22.996Z,29.05
2023-06-04T03:58:28.698Z,44.58
2023-06-04T03:59:36.475Z,31.23
2023-06-04T04:00:50.226Z,34.08
2023-06-04T04:01:56.673Z,34.55
2023-06-04T04:03:01.890Z,29.70
2023-06-04T04:04:11.839Z,23.52
2023-06-04T04:05:19.172Z,26.17
2023-06-04T04:06:32.057Z,34.42
2023-06-04T04:07:36.809Z,23.23
2023-06-04T04:08:46.073Z,33.45
2023-06-04T04:09:50.697Z,31.70
2023-06-04T04:10:57.725Z,31.75
2023-06-04T04:12:09.926Z,40.72
2023-06-04T04:13:17.877Z,27.70
2023-06-04T04:14:26.413Z,25.50
2023-06-04T04:15:34.228Z,24.48
2023-06-04T04:16:38.490Z,32.80
2023-06-04T04:17:52.335Z,38.42
2023-06-04T04:18:59.993Z,22.95
2023-06-04T04:20:10.335Z,22.45
2023-06-04T04:21:27.393Z,26.33
2023-06-04T04:22:35.134Z,37.78
2023-06-04T04:23:47.740Z,39.30
2023-06-04T04:24:52.525Z,32.50
2023-06-04T04:26:04.118Z,24.80
2023-06-04T04:28:26.769Z,22.08
2023-06-04T04:29:34.444Z,31.50
2023-06-04T04:30:45.638Z,28.27
2023-06-04T04:31:50.287Z,36.45
2023-06-04T04:33:02.622Z,23.75
2023-06-04T04:34:10.453Z,24.52
2023-06-04T04:35:20.070Z,25.38
2023-06-04T04:36:31.412Z,24.50
2023-06-04T04:37:35.574Z,27.73
2023-06-04T04:38:52.584Z,32.45
2023-06-04T04:40:00.304Z,26.67
2023-06-04T04:41:09.556Z,18.45
2023-06-04T04:42:16.732Z,27.92
2023-06-04T04:43:33.786Z,21.38
2023-06-04T04:44:38.338Z,40.60
2023-06-04T04:45:47.116Z,34.45
2023-06-04T04:46:51.457Z,42.20
2023-06-04T04:48:03.447Z,21.23
2023-06-04T04:49:10.864Z,25.63
2023-06-04T04:50:18.535Z,48.90
2023-06-04T04:51:31.079Z,26.35
2023-06-04T04:52:38.531Z,22.50
2023-06-04T04:53:51.696Z,33.55
2023-06-04T04:54:59.446Z,26.27
2023-06-04T04:56:09.452Z,26.77
2023-06-04T04:57:19.224Z,37.53
2023-06-04T04:58:23.282Z,32.42
2023-06-04T04:59:36.391Z,31.08
2023-06-04T05:00:41.462Z,30.23
2023-06-04T05:01:57.272Z,42.22
2023-06-04T05:03:05.647Z,22.70
2023-06-04T05:04:13.192Z,25.52
2023-06-04T05:05:17.694Z,26.27
2023-06-04T05:06:25.391Z,27.27
2023-06-04T05:07:37.560Z,24.90
2023-06-04T05:08:47.422Z,37.25
2023-06-04T05:09:54.740Z,36.00
2023-06-04T05:11:02.123Z,32.47
2023-06-04T05:12:07.397Z,27.60
2023-06-04T05:13:14.573Z,25.83
2023-06-04T05:14:19.270Z,26.00
2023-06-04T05:15:31.932Z,21.75
2023-06-04T05:16:45.948Z,31.98
2023-06-04T05:17:58.391Z,30.05
2023-06-04T05:19:04.434Z,28.45
2023-06-04T05:20:14.884Z,23.80
2023-06-04T05:21:22.393Z,41.58
2023-06-04T05:22:31.149Z,29.73
2023-06-04T05:23:39.296Z,39.97
2023-06-04T05:24:46.535Z,37.15
2023-06-04T05:25:54.252Z,52.33
2023-06-04T05:26:59.213Z,34.47
2023-06-04T05:28:10.677Z,28.27
2023-06-04T05:29:16.679Z,31.65
2023-06-04T05:30:30.271Z,34.15
2023-06-04T05:31:34.985Z,37.65
2023-06-04T05:32:45.846Z,38.20
2023-06-04T05:33:50.045Z,44.55
2023-06-04T05:34:58.960Z,37.00
2023-06-04T05:36:10.375Z,31.55
2023-06-04T05:37:18.934Z,38.78
2023-06-04T05:38:27.810Z,56.45
2023-06-04T05:39:35.616Z,49.22
2023-06-04T05:40:45.808Z,45.45
2023-06-04T05:41:50.171Z,82.15
2023-06-04T05:43:00.314Z,27.85
2023-06-04T05:44:07.488Z,29.90
2023-06-04T05:45:17.743Z,37.20
2023-06-04T05:46:24.046Z,31.05
2023-06-04T05:47:30.833Z,31.77
2023-06-04T05:48:38.708Z,40.90
2023-06-04T05:49:43.060Z,56.38
2023-06-04T05:50:53.945Z,44.55
2023-06-04T05:52:00.712Z,57.53
2023-06-04T05:53:09.686Z,33.10
2023-06-04T05:54:14.538Z,44.38
2023-06-04T05:55:24.986Z,47.20
2023-06-04T05:56:33.140Z,31.48
2023-06-04T05:57:40.710Z,35.67
2023-06-04T05:58:45.399Z,40.25
2023-06-04T05:59:53.696Z,47.15
2023-06-04T06:00:58.388Z,38.22
2023-06-04T06:02:06.142Z,32.38
2023-06-04T06:03:11.978Z,34.67
2023-06-04T06:04:19.886Z,40.58
2023-06-04T06:05:23.808Z,24.92
2023-06-04T06:06:30.737Z,39.45
2023-06-04T06:07:37.913Z,33.47
2023-06-04T06:08:49.694Z,51.55
2023-06-04T06:11:13.588Z,39.72
2023-06-04T06:12:22.340Z,36.95
2023-06-04T06:13:29.895Z,43.08
2023-06-04T06:14:39.144Z,41.08
2023-06-04T06:15:46.449Z,44.35
2023-06-04T06:16:56.918Z,49.90
2023-06-04T06:18:03.665Z,40.25
2023-06-04T06:19:07.846Z,26.52
2023-06-04T06:20:19.258Z,38.95
2023-06-04T06:21:23.880Z,57.22
2023-06-04T06:22:30.978Z,30.45
2023-06-04T06:23:36.145Z,41.88
2023-06-04T06:24:45.180Z,50.38
2023-06-04T06:25:58.774Z,43.10
2023-06-04T06:27:05.828Z,37.25
2023-06-04T06:28:13.556Z,39.33
2023-06-04T06:29:20.917Z,35.70
2023-06-04T06:30:25.719Z,38.92
2023-06-04T06:31:34.686Z,46.28
2023-06-04T06:32:48.068Z,58.40
2023-06-04T06:33:52.454Z,60.05
2023-06-04T06:35:02.837Z,42.13
2023-06-04T06:36:08.039Z,109.10
2023-06-04T06:37:14.620Z,77.05
2023-06-04T06:38:19.325Z,95.20
2023-06-04T06:39:28.849Z,146.65
2023-06-04T06:40:33.570Z,43.15
2023-06-04T06:41:44.028Z,52.47
2023-06-04T06:42:53.875Z,83.40
2023-06-04T06:44:06.802Z,41.53
2023-06-04T06:45:12.020Z,44.25
2023-06-04T06:46:19.280Z,49.30
2023-06-04T06:47:24.012Z,105.15
2023-06-04T06:48:38.669Z,333.17
2023-06-04T06:49:43.361Z,1042.03
2023-06-04T06:50:50.376Z,983.42
2023-06-04T06:51:55.084Z,36.45
2023-06-04T06:53:10.017Z,45.03
2023-06-04T06:54:17.038Z,64.15
2023-06-04T06:55:24.052Z,56.10
2023-06-04T06:56:28.809Z,47.25
2023-06-04T06:57:37.453Z,37.15
2023-06-04T06:58:45.300Z,56.05
2023-06-04T06:59:56.486Z,74.78
2023-06-04T07:01:01.428Z,51.42
2023-06-04T07:02:09.510Z,64.70
2023-06-04T07:03:22.727Z,80.80
2023-06-04T07:04:33.321Z,48.67
2023-06-04T07:05:43.417Z,48.90
2023-06-04T07:06:54.308Z,91.03
2023-06-04T07:08:02.925Z,47.00
2023-06-04T07:09:11.698Z,56.17
2023-06-04T07:10:21.899Z,76.05
2023-06-04T07:11:28.226Z,43.17
2023-06-04T07:12:35.768Z,49.22
2023-06-04T07:13:40.387Z,69.22
2023-06-04T07:14:50.299Z,53.45
2023-06-04T07:16:01.422Z,66.55
2023-06-04T07:17:08.237Z,54.63
2023-06-04T07:18:13.223Z,44.38
2023-06-04T07:19:22.235Z,52.75
2023-06-04T07:20:29.833Z,49.83
2023-06-04T07:21:36.911Z,52.95
2023-06-04T07:22:58.417Z,80.70
2023-06-04T07:24:08.319Z,41.97
2023-06-04T07:25:17.602Z,63.95
2023-06-04T07:26:34.947Z,43.25
2023-06-04T07:27:43.452Z,64.70
2023-06-04T07:28:50.742Z,56.28
2023-06-04T07:29:59.383Z,58.47
2023-06-04T07:31:09.967Z,42.47
2023-06-04T07:32:17.706Z,43.63
2023-06-04T07:33:32.641Z,38.08
2023-06-04T07:34:39.074Z,69.05
2023-06-04T07:35:46.295Z,58.58
2023-06-04T07:36:51.529Z,70.93
2023-06-04T07:37:59.530Z,66.47
2023-06-04T07:39:04.942Z,49.13
2023-06-04T07:40:13.268Z,40.80
2023-06-04T07:41:18.496Z,44.22
2023-06-04T07:42:26.119Z,53.42
2023-06-04T07:43:33.619Z,44.65
2023-06-04T07:44:41.407Z,53.85
2023-06-04T07:45:50.681Z,114.22
2023-06-04T07:46:57.690Z,65.53
2023-06-04T07:48:05.196Z,47.97
2023-06-04T07:49:11.025Z,64.40
2023-06-04T07:50:18.403Z,62.35
2023-06-04T07:51:23.689Z,40.75
2023-06-04T07:52:30.364Z,53.25
2023-06-04T07:53:38.026Z,72.25
2023-06-04T07:54:43.773Z,60.80
2023-06-04T07:55:52.283Z,60.65
2023-06-04T07:56:57.823Z,40.95
2023-06-04T07:58:09.606Z,46.15
2023-06-04T07:59:22.147Z,51.47
2023-06-04T08:00:29.184Z,46.20
2023-06-04T08:01:33.823Z,64.13
2023-06-04T08:02:49.103Z,78.82
2023-06-04T08:04:00.242Z,76.07
2023-06-04T08:05:10.084Z,44.97
2023-06-04T08:06:24.396Z,65.03
2023-06-04T08:07:28.892Z,67.90
2023-06-04T08:08:36.369Z,89.10
2023-06-04T08:09:53.293Z,75.28
2023-06-04T08:11:00.065Z,74.70
2023-06-04T08:12:11.228Z,62.25
2023-06-04T08:13:19.315Z,53.80
2023-06-04T08:14:29.959Z,79.78
2023-06-04T08:15:37.740Z,57.78
2023-06-04T08:16:46.335Z,75.95
2023-06-04T08:17:57.404Z,97.50
2023-06-04T08:19:06.743Z,61.95
2023-06-04T08:20:17.006Z,55.40
2023-06-04T08:21:31.691Z,64.97
2023-06-04T08:22:47.490Z,105.05
2023-06-04T08:23:57.850Z,117.22
2023-06-04T08:25:17.853Z,99.35
2023-06-04T08:26:22.548Z,74.72
2023-06-04T08:27:47.308Z,93.28
2023-06-04T08:28:52.230Z,945.33
2023-06-04T08:30:02.859Z,942.65
2023-06-04T08:31:13.368Z,59.95
2023-06-04T08:32:22.157Z,88.68
2023-06-04T08:33:42.800Z,54.20
2023-06-04T08:34:48.123Z,89.10
2023-06-04T08:35:50.774Z,102.03
2023-06-04T08:36:56.146Z,109.97
2023-06-04T08:37:59.426Z,104.70
2023-06-04T08:39:04.843Z,85.95
2023-06-04T08:40:10.411Z,81.38
2023-06-04T08:41:20.407Z,108.13
2023-06-04T08:42:28.204Z,113.13
2023-06-04T08:43:34.942Z,85.65
2023-06-04T08:44:37.286Z,95.18
2023-06-04T08:45:44.272Z,78.80
2023-06-04T08:46:52.984Z,75.13
2023-06-04T08:47:59.393Z,52.08
2023-06-04T08:49:06.158Z,74.32
2023-06-04T08:50:15.429Z,65.15
2023-06-04T08:51:19.368Z,83.72
2023-06-04T08:52:24.814Z,64.30
2023-06-04T08:53:28.189Z,84.28
2023-06-04T08:54:35.454Z,64.80
2023-06-04T08:55:39.727Z,97.78
2023-06-04T08:56:48.382Z,101.40
2023-06-04T08:57:52.843Z,84.78
2023-06-04T08:59:05.216Z,68.35
2023-06-04T09:00:13.256Z,56.70
2023-06-04T09:01:19.539Z,73.15
2023-06-04T09:02:25.324Z,87.93
2023-06-04T09:03:28.144Z,85.97
2023-06-04T09:04:36.580Z,85.43
2023-06-04T09:05:41.385Z,96.97
2023-06-04T09:06:47.106Z,109.63
2023-06-04T09:07:53.148Z,85.80
2023-06-04T09:09:02.015Z,89.57
2023-06-04T09:10:13.407Z,73.97
2023-06-04T09:11:21.164Z,92.35
2023-06-04T09:12:30.236Z,93.93
2023-06-04T09:13:36.260Z,89.88
2023-06-04T09:14:41.157Z,81.57
2023-06-04T09:15:45.452Z,180.18
2023-06-04T09:16:52.005Z,84.38
2023-06-04T09:17:54.647Z,119.47
2023-06-04T09:19:01.594Z,75.65
2023-06-04T09:20:10.166Z,93.72
2023-06-04T09:21:15.236Z,88.20
2023-06-04T09:22:17.545Z,91.30
2023-06-04T09:23:23.953Z,146.20
2023-06-04T09:24:31.461Z,81.15
2023-06-04T09:25:36.456Z,78.30
2023-06-04T09:26:38.873Z,77.13
2023-06-04T09:27:45.193Z,110.93
2023-06-04T09:28:51.158Z,91.38
2023-06-04T09:29:55.032Z,78.47
2023-06-04T09:31:00.230Z,60.67
2023-06-04T09:32:05.152Z,58.85
2023-06-04T09:33:10.956Z,68.15
2023-06-04T09:34:16.617Z,71.50
2023-06-04T09:35:22.331Z,71.93
2023-06-04T09:36:34.566Z,80.53
2023-06-04T09:37:37.003Z,64.60
2023-06-04T09:38:42.316Z,71.75
2023-06-04T09:39:47.725Z,80.13
2023-06-04T09:40:51.312Z,84.57
2023-06-04T09:42:03.416Z,83.90
2023-06-04T09:43:07.336Z,71.93
2023-06-04T09:44:14.816Z,73.63
2023-06-04T09:45:29.128Z,72.45
2023-06-04T09:46:35.262Z,72.57
2023-06-04T09:47:41.380Z,81.15
2023-06-04T09:48:47.804Z,76.95
2023-06-04T09:49:52.158Z,67.00
2023-06-04T09:51:10.957Z,69.20
2023-06-04T09:52:14.053Z,61.00
2023-06-04T09:53:19.678Z,108.05
2023-06-04T09:54:22.088Z,74.57
2023-06-04T09:55:27.404Z,54.05
2023-06-04T09:56:30.275Z,69.45
2023-06-04T09:57:37.559Z,71.95
2023-06-04T09:58:41.685Z,73.65
2023-06-04T09:59:49.732Z,75.97
2023-06-04T10:00:52.306Z,88.50
2023-06-04T10:01:57.556Z,84.97
2023-06-04T10:03:04.342Z,72.57
2023-06-04T10:04:13.273Z,77.18
2023-06-04T10:05:16.201Z,78.40
2023-06-04T10:06:24.611Z,75.53
2023-06-04T10:07:28.021Z,88.05
2023-06-04T10:08:35.292Z,65.78
2023-06-04T10:09:46.724Z,87.35
2023-06-04T10:10:54.375Z,75.50
2023-06-04T10:12:01.188Z,64.85
2023-06-04T10:13:11.122Z,52.53
2023-06-04T10:14:21.608Z,55.85
2023-06-04T10:15:27.295Z,63.35
2023-06-04T10:16:35.053Z,57.78
2023-06-04T10:17:41.795Z,77.32
2023-06-04T10:18:46.831Z,78.32
2023-06-04T10:19:55.316Z,62.60
2023-06-04T10:21:01.024Z,70.90
2023-06-04T10:22:11.382Z,71.55
2023-06-04T10:23:22.288Z,45.42
2023-06-04T10:24:28.275Z,50.95
2023-06-04T10:25:34.957Z,41.20
2023-06-04T10:26:42.959Z,39.95
2023-06-04T10:27:50.664Z,45.00
2023-06-04T10:28:58.128Z,66.85
2023-06-04T10:30:01.027Z,73.75
2023-06-04T10:31:06.254Z,44.50
2023-06-04T10:32:09.160Z,49.15
2023-06-04T10:33:16.926Z,68.63
2023-06-04T10:34:21.393Z,50.47
2023-06-04T10:35:34.511Z,46.33
2023-06-04T10:36:44.995Z,64.65
2023-06-04T10:37:54.809Z,69.30
2023-06-04T10:38:57.453Z,58.70
2023-06-04T10:40:06.103Z,58.83
2023-06-04T10:41:15.680Z,53.83
2023-06-04T10:42:22.558Z,55.03
2023-06-04T10:43:32.100Z,50.80
2023-06-04T10:44:50.709Z,79.18
2023-06-04T10:45:53.347Z,60.33
2023-06-04T10:46:58.239Z,86.93
2023-06-04T10:48:06.909Z,45.65
2023-06-04T10:49:11.749Z,47.97
2023-06-04T10:50:17.905Z,60.28
2023-06-04T10:51:34.415Z,43.38
2023-06-04T10:52:37.279Z,71.45
2023-06-04T10:53:45.033Z,56.67
2023-06-04T10:54:50.010Z,56.75
2023-06-04T10:55:54.908Z,80.18
2023-06-04T10:56:57.290Z,53.05
2023-06-04T10:58:05.154Z,57.80
2023-06-04T10:59:19.024Z,58.28
2023-06-04T11:00:24.103Z,35.70
2023-06-04T11:01:28.161Z,36.15
2023-06-04T11:02:33.513Z,69.82
2023-06-04T11:03:39.447Z,54.25
2023-06-04T11:04:45.210Z,51.00
2023-06-04T11:05:52.005Z,66.28
2023-06-04T11:07:05.118Z,68.55
2023-06-04T11:08:11.080Z,54.00
2023-06-04T11:09:18.133Z,58.42
2023-06-04T11:10:35.844Z,51.78
2023-06-04T11:11:42.344Z,75.10
2023-06-04T11:12:45.367Z,53.55
2023-06-04T11:13:50.384Z,64.30
2023-06-04T11:14:56.576Z,69.82
2023-06-04T11:16:01.553Z,52.88
2023-06-04T11:17:14.880Z,47.97
2023-06-04T11:18:21.519Z,46.90
2023-06-04T11:19:24.262Z,59.50
2023-06-04T11:20:30.355Z,44.17
2023-06-04T11:21:39.356Z,48.60
2023-06-04T11:22:41.678Z,71.03
2023-06-04T11:23:46.705Z,68.25
2023-06-04T11:24:57.960Z,76.63
2023-06-04T11:26:02.923Z,53.60
2023-06-04T11:27:12.459Z,57.97
2023-06-04T11:28:23.210Z,68.15
2023-06-04T11:29:26.147Z,88.72
2023-06-04T11:30:31.276Z,118.25
2023-06-04T11:31:43.834Z,101.95
2023-06-04T11:32:49.026Z,136.35
2023-06-04T11:33:51.307Z,97.20
2023-06-04T11:35:07.665Z,103.78
2023-06-04T11:36:10.428Z,93.93
2023-06-04T11:37:15.351Z,81.18
2023-06-04T11:38:17.563Z,77.72
2023-06-04T11:39:22.682Z,86.25
2023-06-04T11:40:28.390Z,75.75
2023-06-04T11:41:34.675Z,88.65
2023-06-04T11:42:44.258Z,107.25
2023-06-04T11:43:52.435Z,186.23
2023-06-04T11:44:57.833Z,175.50
2023-06-04T11:46:02.849Z,162.38
2023-06-04T11:47:08.175Z,340.65
2023-06-04T11:48:16.275Z,1273.63
2023-06-04T11:49:20.515Z,1283.78
2023-06-04T11:50:25.929Z,49.88
2023-06-04T11:51:28.870Z,68.32
2023-06-04T11:52:34.224Z,63.67
2023-06-04T11:53:41.521Z,78.30
2023-06-04T11:54:43.861Z,80.03
2023-06-04T11:55:51.857Z,89.90
2023-06-04T11:56:55.189Z,84.60
2023-06-04T11:58:00.752Z,93.93
2023-06-04T11:59:03.585Z,69.82
2023-06-04T12:00:13.460Z,82.53
2023-06-04T12:01:18.968Z,80.28
2023-06-04T12:02:24.213Z,135.05
2023-06-04T12:03:42.417Z,79.32
2023-06-04T12:04:44.900Z,104.00
2023-06-04T12:05:50.546Z,107.07
2023-06-04T12:06:54.277Z,89.78
2023-06-04T12:08:08.384Z,121.03
2023-06-04T12:09:23.984Z,97.05
2023-06-04T12:10:30.086Z,169.57
2023-06-04T12:11:36.007Z,82.55
2023-06-04T12:12:41.905Z,100.15
2023-06-04T12:13:44.340Z,140.82
2023-06-04T12:14:49.514Z,203.02
2023-06-04T12:15:53.699Z,185.23
2023-06-04T12:17:00.248Z,93.85
2023-06-04T12:18:05.508Z,83.80
2023-06-04T12:19:12.582Z,88.10
2023-06-04T12:20:17.615Z,83.13
2023-06-04T12:21:27.976Z,63.70
2023-06-04T12:22:36.108Z,87.82
2023-06-04T12:23:38.951Z,90.38
2023-06-04T12:24:54.696Z,160.05
2023-06-04T12:26:01.530Z,141.98
2023-06-04T12:27:10.626Z,116.78
2023-06-04T12:28:21.685Z,134.82
2023-06-04T12:29:24.406Z,134.70
2023-06-04T12:30:40.181Z,165.35
2023-06-04T12:31:44.068Z,193.32
2023-06-04T12:32:49.969Z,232.35
2023-06-04T12:33:52.666Z,260.63
2023-06-04T12:34:58.384Z,207.82
2023-06-04T12:36:04.510Z,186.05
2023-06-04T12:37:07.925Z,204.07
2023-06-04T12:38:13.228Z,137.55
2023-06-04T12:39:16.980Z,163.88
2023-06-04T12:40:22.026Z,216.05
2023-06-04T12:41:24.544Z,199.82
2023-06-04T12:42:32.874Z,158.50
2023-06-04T12:43:38.710Z,179.45
2023-06-04T12:44:44.292Z,154.73
2023-06-04T12:45:47.681Z,141.77
2023-06-04T12:46:52.581Z,143.27
2023-06-04T12:47:55.038Z,113.32
2023-06-04T12:49:00.207Z,139.25
2023-06-04T12:50:02.723Z,96.18
2023-06-04T12:51:08.159Z,110.28
2023-06-04T12:52:15.268Z,98.85
2023-06-04T12:53:17.987Z,99.07
2023-06-04T12:54:22.989Z,112.13
2023-06-04T12:55:27.984Z,96.75
2023-06-04T12:56:33.474Z,97.22
2023-06-04T12:57:39.255Z,99.18
2023-06-04T12:58:44.530Z,119.82
2023-06-04T12:59:46.900Z,140.73
2023-06-04T13:00:52.727Z,140.30
2023-06-04T13:01:55.749Z,179.00
2023-06-04T13:03:01.199Z,158.60
2023-06-04T13:04:12.880Z,253.32
2023-06-04T13:05:17.151Z,435.02
2023-06-04T13:06:22.063Z,410.48
2023-06-04T13:07:27.447Z,272.85
2023-06-04T13:08:33.466Z,195.63
2023-06-04T13:09:36.566Z,157.50
2023-06-04T13:10:41.834Z,139.48
2023-06-04T13:11:47.354Z,244.77
2023-06-04T13:12:54.950Z,223.23
2023-06-04T13:13:57.170Z,325.63
2023-06-04T13:15:03.685Z,260.65
2023-06-04T13:16:06.226Z,206.13
2023-06-04T13:17:22.206Z,172.40
2023-06-04T13:18:25.580Z,188.52
2023-06-04T13:19:30.630Z,187.20
2023-06-04T13:20:34.464Z,218.95
2023-06-04T13:21:39.833Z,245.40
2023-06-04T13:22:42.099Z,246.82
2023-06-04T13:23:50.976Z,244.32
2023-06-04T13:24:56.993Z,249.82
2023-06-04T13:25:59.400Z,302.40
2023-06-04T13:27:04.190Z,342.92
2023-06-04T13:28:14.613Z,273.80
2023-06-04T13:29:17.654Z,327.92
2023-06-04T13:30:22.559Z,382.60
2023-06-04T13:31:27.416Z,391.02
2023-06-04T13:32:29.997Z,437.70
2023-06-04T13:33:35.644Z,406.75
2023-06-04T13:34:38.355Z,550.90
2023-06-04T13:35:45.781Z,590.35
2023-06-04T13:36:48.149Z,623.40
2023-06-04T13:37:53.058Z,298.75
2023-06-04T13:38:58.402Z,592.58
2023-06-04T13:40:00.753Z,632.65
2023-06-04T13:41:05.869Z,576.90
2023-06-04T13:42:08.548Z,763.72
2023-06-04T13:43:16.982Z,879.13
2023-06-04T13:44:22.300Z,836.72
2023-06-04T13:45:30.425Z,1313.45
2023-06-04T13:46:35.821Z,1179.00
2023-06-04T13:47:38.537Z,1339.28
2023-06-04T13:48:43.788Z,483.20
2023-06-04T13:49:46.354Z,984.63
2023-06-04T13:50:51.503Z,929.53
2023-06-04T13:51:53.959Z,478.27
2023-06-04T13:52:59.042Z,281.77
2023-06-04T13:54:03.814Z,790.00
2023-06-04T13:55:10.026Z,876.10
2023-06-04T13:56:12.304Z,1242.10
2023-06-04T13:57:17.456Z,1397.50
2023-06-04T13:58:25.028Z,1225.80
2023-06-04T13:59:27.432Z,1408.38
2023-06-04T14:00:33.741Z,1384.00
2023-06-04T14:01:36.342Z,1374.15
2023-06-04T14:02:41.515Z,1362.93
2023-06-04T14:03:45.608Z,1396.55
2023-06-04T14:04:50.773Z,1399.28
2023-06-04T14:05:53.905Z,1425.20
2023-06-04T14:07:08.447Z,1140.32
2023-06-04T14:08:11.265Z,743.55
2023-06-04T14:09:16.218Z,807.00
2023-06-04T14:10:18.553Z,932.80
2023-06-04T14:11:23.714Z,1038.70
2023-06-04T14:12:26.373Z,1276.72
2023-06-04T14:13:34.292Z,1223.82
2023-06-04T14:14:37.711Z,1386.68
2023-06-04T14:15:42.782Z,1403.75
2023-06-04T14:16:48.218Z,231.43
2023-06-04T14:17:53.537Z,1120.70
2023-06-04T14:18:56.300Z,1333.82
2023-06-04T14:20:01.438Z,954.05
2023-06-04T14:21:03.878Z,1044.07
2023-06-04T14:22:09.323Z,442.42
2023-06-04T14:23:17.396Z,684.15
2023-06-04T14:24:19.797Z,826.00
2023-06-04T14:25:24.935Z,594.00
2023-06-04T14:26:28.284Z,1239.65
2023-06-04T14:27:33.629Z,768.40
2023-06-04T14:28:39.581Z,1018.35